Time;durP1;ratioP1;P1;durP2;ratioP2;P2;SDS_P1;SDS_P2;PMS_P1;PMS_P2;Temp;Humidity;BMP_temperature;BMP_pressure;BME280_temperature;BME280_humidity;BME280_pressure;Samples;Min_cycle;Max_cycle;Signal;HPM_P1;HPM_P2
2020/12/20 00:01:46;;;;;;;20.50;13.40;;;1.40;99.90;;;;;;8297659;28;20026;-76
2020/12/20 00:05:47;;;;;;;24.30;14.48;;;1.50;99.90;;;;;;8298060;28;20121;-77
2020/12/20 00:09:47;;;;;;;26.45;16.52;;;1.40;99.90;;;;;;8297437;28;20471;-77
2020/12/20 00:13:48;;;;;;;22.70;14.38;;;1.60;99.90;;;;;;8298383;28;20407;-77
2020/12/20 00:17:52;;;;;;;25.50;14.02;;;1.60;99.90;;;;;;8297054;28;20112;-77
2020/12/20 00:21:57;;;;;;;19.95;13.45;;;1.80;99.90;;;;;;8298179;28;20022;-77
2020/12/20 00:25:58;;;;;;;19.27;13.18;;;1.60;99.90;;;;;;8298264;28;20499;-76
2020/12/20 00:29:58;;;;;;;19.88;12.80;;;1.60;99.90;;;;;;8296781;28;20022;-77
2020/12/20 00:33:59;;;;;;;20.33;12.57;;;1.50;99.90;;;;;;8297482;28;20096;-77
2020/12/20 00:37:59;;;;;;;18.25;12.38;;;1.70;99.90;;;;;;8296562;28;20022;-77
2020/12/20 00:42:04;;;;;;;21.23;13.30;;;1.60;99.90;;;;;;8296572;28;20033;-77
2020/12/20 00:46:05;;;;;;;21.75;13.93;;;1.70;99.90;;;;;;8297178;28;20021;-77
2020/12/20 00:50:05;;;;;;;22.10;13.45;;;1.60;99.90;;;;;;8296021;28;20459;-76
2020/12/20 00:54:07;;;;;;;18.63;13.32;;;1.50;99.90;;;;;;8296198;28;20033;-77
2020/12/20 00:58:08;;;;;;;20.80;13.65;;;1.50;99.90;;;;;;8295562;28;20032;-77
2020/12/20 01:02:08;;;;;;;18.48;12.98;;;1.50;99.90;;;;;;8296812;28;20033;-77
2020/12/20 01:06:16;;;;;;;19.60;12.18;;;1.30;99.90;;;;;;8295637;28;20030;-77
2020/12/20 01:10:16;;;;;;;17.80;12.07;;;1.30;99.90;;;;;;8296572;28;20057;-76
2020/12/20 01:14:17;;;;;;;18.50;10.80;;;1.10;99.90;;;;;;8296620;28;20037;-76
2020/12/20 01:18:18;;;;;;;5.45;2.83;;;1.20;99.90;;;;;;8296456;28;20542;-75
2020/12/20 01:22:18;;;;;;;20.38;12.25;;;0.80;99.90;;;;;;8295229;28;20017;-76
2020/12/20 01:26:21;;;;;;;16.42;11.68;;;0.90;99.90;;;;;;8295284;28;20061;-76
2020/12/20 01:30:21;;;;;;;17.52;12.13;;;0.60;99.90;;;;;;8294795;28;20026;-76
2020/12/20 01:34:22;;;;;;;19.50;13.05;;;0.70;99.90;;;;;;8296073;28;20041;-75
2020/12/20 01:38:22;;;;;;;18.85;11.80;;;0.70;99.90;;;;;;8311067;28;20036;-75
2020/12/20 01:42:23;;;;;;;17.48;12.18;;;0.70;99.90;;;;;;8295732;28;20026;-75
2020/12/20 01:46:24;;;;;;;17.48;12.15;;;0.60;99.90;;;;;;8294527;28;20733;-76
2020/12/20 01:50:25;;;;;;;18.20;12.23;;;0.60;99.90;;;;;;8295246;28;20053;-75
2020/12/20 01:54:26;;;;;;;18.30;10.88;;;0.40;99.90;;;;;;8294561;28;20026;-75
2020/12/20 01:58:27;;;;;;;20.08;13.18;;;0.60;99.90;;;;;;8294199;28;20025;-75
2020/12/20 02:02:28;;;;;;;19.23;12.75;;;0.50;99.90;;;;;;8293806;28;20032;-74
2020/12/20 02:06:28;;;;;;;29.98;13.40;;;0.30;99.90;;;;;;8293628;28;20487;-75
2020/12/20 02:10:29;;;;;;;19.50;12.40;;;0.20;99.90;;;;;;8295000;28;20037;-75
2020/12/20 02:14:30;;;;;;;21.52;13.50;;;0.30;99.90;;;;;;8294567;28;20064;-75
2020/12/20 02:18:31;;;;;;;54.35;11.63;;;0.30;99.90;;;;;;8293258;28;20037;-74
2020/12/20 02:22:32;;;;;;;29.35;12.70;;;0.60;99.90;;;;;;8294035;28;20041;-75
2020/12/20 02:26:33;;;;;;;74.55;13.23;;;0.60;99.90;;;;;;8293348;28;20046;-75
2020/12/20 02:30:34;;;;;;;57.20;13.20;;;0.40;99.90;;;;;;8294336;28;20026;-75
2020/12/20 02:34:35;;;;;;;212.20;16.25;;;0.40;99.90;;;;;;8293924;28;20029;-74
2020/12/20 02:38:35;;;;;;;156.50;15.55;;;0.60;99.90;;;;;;8292228;28;20022;-75
2020/12/20 02:42:36;;;;;;;235.52;15.43;;;0.70;99.90;;;;;;8294341;28;20049;-75
2020/12/20 02:46:36;;;;;;;200.52;16.13;;;0.80;99.90;;;;;;8294130;28;20026;-75
2020/12/20 02:50:37;;;;;;;138.68;16.17;;;0.70;99.90;;;;;;8291674;28;20034;-75
2020/12/20 02:54:37;;;;;;;102.85;14.00;;;0.70;99.90;;;;;;8292077;28;20080;-75
2020/12/20 02:58:38;;;;;;;182.40;16.08;;;0.70;99.90;;;;;;8293842;28;20036;-75
2020/12/20 03:02:39;;;;;;;182.93;14.98;;;0.80;99.90;;;;;;8293940;28;20057;-74
2020/12/20 03:06:39;;;;;;;191.15;15.40;;;0.90;99.90;;;;;;8309044;28;20037;-75
2020/12/20 03:10:40;;;;;;;80.22;13.57;;;0.90;99.90;;;;;;8293748;28;20026;-75
2020/12/20 03:14:40;;;;;;;88.45;14.93;;;0.90;99.90;;;;;;8308473;28;20041;-74
2020/12/20 03:18:41;;;;;;;92.22;14.40;;;0.80;99.90;;;;;;8308442;28;20065;-75
2020/12/20 03:22:41;;;;;;;110.15;13.27;;;1.10;99.90;;;;;;8292872;28;20395;-74
2020/12/20 03:26:42;;;;;;;113.90;13.55;;;1.10;99.90;;;;;;8292354;28;20025;-75
2020/12/20 03:30:42;;;;;;;79.47;12.88;;;1.10;99.90;;;;;;8292201;28;20030;-75
2020/12/20 03:34:43;;;;;;;158.30;14.82;;;1.00;99.90;;;;;;8296725;28;20030;-75
2020/12/20 03:38:43;;;;;;;99.55;13.07;;;0.90;99.90;;;;;;8297873;28;20064;-75
2020/12/20 03:42:46;;;;;;;67.65;12.13;;;1.10;99.90;;;;;;8298161;28;20024;-75
2020/12/20 03:46:46;;;;;;;92.00;13.40;;;1.10;99.90;;;;;;8299226;28;20101;-75
2020/12/20 03:50:47;;;;;;;76.03;13.60;;;1.10;99.90;;;;;;8298759;28;20029;-75
2020/12/20 03:54:47;;;;;;;108.10;14.18;;;0.80;99.90;;;;;;8299072;28;20037;-75
2020/12/20 03:58:48;;;;;;;166.77;16.10;;;0.80;99.90;;;;;;8298432;28;20049;-75
2020/12/20 04:02:48;;;;;;;86.63;15.18;;;0.90;99.90;;;;;;8297652;28;20026;-74
2020/12/20 04:06:49;;;;;;;41.90;13.18;;;0.80;99.90;;;;;;8297317;28;20030;-75
2020/12/20 04:10:49;;;;;;;73.32;13.25;;;0.80;99.90;;;;;;8298234;28;20399;-75
2020/12/20 04:14:50;;;;;;;54.90;14.25;;;0.90;99.90;;;;;;8298093;28;20115;-75
2020/12/20 04:18:51;;;;;;;61.97;13.02;;;0.80;99.90;;;;;;8297730;28;20381;-74
2020/12/20 04:22:51;;;;;;;82.03;13.95;;;1.10;99.90;;;;;;8298205;28;20025;-74
2020/12/20 04:26:52;;;;;;;25.58;12.65;;;1.10;99.90;;;;;;8296758;28;20092;-74
2020/12/20 04:30:52;;;;;;;33.60;12.77;;;1.00;99.90;;;;;;8296347;28;20030;-75
2020/12/20 04:34:53;;;;;;;22.80;13.15;;;1.00;99.90;;;;;;8276462;28;20532;-75
2020/12/20 04:38:55;;;;;;;24.05;13.27;;;0.80;99.90;;;;;;8279933;28;20018;-75
2020/12/20 04:43:13;;;;;;;22.77;13.15;;;1.00;99.90;;;;;;8263971;28;20076;-75
2020/12/20 04:47:16;;;;;;;19.77;12.73;;;0.70;99.90;;;;;;8272311;28;20085;-75
2020/12/20 04:51:17;;;;;;;25.73;13.50;;;0.90;99.90;;;;;;8295864;28;20404;-75
2020/12/20 04:55:18;;;;;;;20.27;12.18;;;0.90;99.90;;;;;;8296950;28;20040;-74
2020/12/20 04:59:18;;;;;;;18.95;12.48;;;0.90;99.90;;;;;;8292274;28;20022;-75
2020/12/20 05:03:19;;;;;;;19.08;11.73;;;0.90;99.90;;;;;;8296734;28;20411;-75
2020/12/20 05:07:20;;;;;;;18.60;11.23;;;0.80;99.90;;;;;;8295375;28;20030;-74
2020/12/20 05:11:35;;;;;;;18.02;11.60;;;1.20;99.90;;;;;;8296510;28;20075;-75
2020/12/20 05:15:35;;;;;;;14.75;10.32;;;1.20;99.90;;;;;;8295971;28;20041;-75
2020/12/20 05:19:36;;;;;;;14.07;10.13;;;1.00;99.90;;;;;;8296050;28;20551;-74
2020/12/20 05:23:36;;;;;;;15.40;10.23;;;0.80;99.90;;;;;;8295014;28;20026;-75
2020/12/20 05:27:37;;;;;;;17.30;11.30;;;0.70;99.90;;;;;;8294846;28;20399;-75
2020/12/20 05:31:38;;;;;;;16.60;11.25;;;0.60;99.90;;;;;;8289820;28;20050;-75
2020/12/20 05:35:40;;;;;;;16.55;10.77;;;0.70;99.90;;;;;;8292834;28;20151;-75
2020/12/20 05:39:40;;;;;;;17.02;10.85;;;0.50;99.90;;;;;;8294957;28;20486;-75
2020/12/20 05:43:41;;;;;;;18.25;11.88;;;0.80;99.90;;;;;;8294616;28;20120;-74
2020/12/20 05:47:41;;;;;;;16.95;11.20;;;1.00;99.90;;;;;;8295489;28;20403;-75
2020/12/20 05:52:02;;;;;;;16.13;10.68;;;0.80;99.90;;;;;;8294069;28;20544;-76
2020/12/20 05:56:04;;;;;;;16.13;10.82;;;0.80;99.90;;;;;;8293360;28;20029;-75
2020/12/20 06:00:06;;;;;;;15.73;10.30;;;1.10;99.90;;;;;;8293703;28;20105;-74
2020/12/20 06:04:06;;;;;;;15.48;10.50;;;1.10;99.90;;;;;;8293865;28;20506;-78
2020/12/20 06:08:15;;;;;;;15.05;9.70;;;1.20;99.90;;;;;;8293814;28;20069;-75
2020/12/20 06:12:18;;;;;;;16.08;10.60;;;0.90;99.90;;;;;;8294744;28;20038;-75
2020/12/20 06:16:25;;;;;;;18.23;11.13;;;1.00;99.90;;;;;;8293129;28;20084;-75
2020/12/20 06:20:30;;;;;;;14.48;10.10;;;0.90;99.90;;;;;;8294300;28;20030;-75
2020/12/20 06:24:36;;;;;;;14.30;10.23;;;0.90;99.90;;;;;;8293876;28;20026;-74
2020/12/20 06:28:42;;;;;;;15.20;9.80;;;0.70;99.90;;;;;;8288273;28;20034;-75
2020/12/20 06:32:45;;;;;;;15.85;9.93;;;0.70;99.90;;;;;;8290915;28;20026;-75
2020/12/20 06:36:46;;;;;;;38.22;22.10;;;0.70;99.90;;;;;;8288623;28;20029;-74
2020/12/20 06:40:47;;;;;;;26.02;19.38;;;0.50;99.90;;;;;;8286917;28;20037;-75
2020/12/20 06:45:18;;;;;;;17.10;11.77;;;0.30;99.90;;;;;;8288467;28;20062;-74
2020/12/20 06:49:40;;;;;;;40.10;27.00;;;0.50;99.90;;;;;;8277817;28;20041;-69
2020/12/20 06:53:47;;;;;;;18.13;10.55;;;0.40;99.90;;;;;;8289676;28;20475;-69
2020/12/20 06:58:07;;;;;;;19.45;13.55;;;0.50;99.90;;;;;;8292302;28;20022;-68
2020/12/20 07:02:08;;;;;;;14.90;10.83;;;0.40;99.90;;;;;;8291550;28;20122;-69
2020/12/20 07:06:12;;;;;;;14.57;10.13;;;0.60;99.90;;;;;;8293217;28;20265;-75
2020/12/20 07:10:46;;;;;;;15.05;10.43;;;0.50;99.90;;;;;;8296872;28;20022;-74
2020/12/20 07:14:47;;;;;;;14.27;9.55;;;0.30;99.90;;;;;;8296662;28;20104;-74
2020/12/20 07:18:55;;;;;;;16.17;10.00;;;0.30;99.90;;;;;;8289235;28;20030;-75
2020/12/20 07:22:55;;;;;;;14.48;10.20;;;1.00;99.90;;;;;;8281007;28;20026;-74
2020/12/20 07:27:01;;;;;;;13.52;9.18;;;4.70;99.90;;;;;;8272143;28;20522;-75
2020/12/20 07:31:03;;;;;;;15.52;11.18;;;4.20;99.90;;;;;;8273760;28;20061;-74
2020/12/20 07:35:04;;;;;;;19.75;11.43;;;3.30;99.90;;;;;;8291857;28;20025;-74
2020/12/20 07:39:06;;;;;;;13.65;10.65;;;4.70;99.90;;;;;;8301492;28;20032;-75
2020/12/20 07:43:07;;;;;;;13.25;9.27;;;4.50;99.90;;;;;;8290578;28;20112;-73
2020/12/20 07:47:10;;;;;;;13.82;10.00;;;4.30;99.90;;;;;;8279717;28;20057;-75
2020/12/20 07:51:14;;;;;;;11.80;8.93;;;4.80;99.90;;;;;;8281041;28;20451;-75
2020/12/20 07:55:15;;;;;;;11.52;8.63;;;4.80;99.90;;;;;;8281867;28;20032;-75
2020/12/20 07:59:18;;;;;;;11.88;8.68;;;3.80;99.90;;;;;;8286220;28;20045;-74
2020/12/20 08:03:18;;;;;;;13.60;9.27;;;3.10;99.90;;;;;;8285591;28;20038;-75
2020/12/20 08:07:19;;;;;;;12.35;8.43;;;2.80;99.90;;;;;;8277205;28;20496;-74
2020/12/20 08:11:26;;;;;;;11.45;8.55;;;2.70;99.90;;;;;;8278439;28;20805;-74
2020/12/20 08:15:27;;;;;;;11.45;8.73;;;2.50;99.90;;;;;;8287870;28;20034;-76
2020/12/20 08:19:29;;;;;;;12.45;8.45;;;2.40;99.90;;;;;;8264177;28;20143;-74
2020/12/20 08:23:29;;;;;;;11.43;8.63;;;2.20;99.90;;;;;;8293200;28;20381;-74
2020/12/20 08:27:30;;;;;;;12.85;9.20;;;2.00;99.90;;;;;;8302999;28;20030;-75
2020/12/20 08:31:32;;;;;;;11.63;8.90;;;2.10;99.90;;;;;;8290410;28;20184;-74
2020/12/20 08:35:33;;;;;;;11.93;8.82;;;2.00;99.90;;;;;;8294691;28;20032;-71
2020/12/20 08:39:34;;;;;;;14.00;9.43;;;1.90;99.90;;;;;;8296201;28;20030;-74
2020/12/20 08:43:34;;;;;;;13.20;9.45;;;1.90;99.90;;;;;;8295954;28;20093;-76
2020/12/20 08:47:35;;;;;;;12.55;9.43;;;1.90;99.90;;;;;;8289419;28;20091;-75
2020/12/20 08:51:36;;;;;;;13.82;9.80;;;1.80;99.90;;;;;;8313158;28;20108;-78
2020/12/20 08:55:36;;;;;;;12.25;9.20;;;1.90;99.90;;;;;;8296942;28;20026;-73
2020/12/20 08:59:40;;;;;;;13.02;9.57;;;2.00;99.90;;;;;;8289236;28;20029;-75
2020/12/20 09:03:41;;;;;;;14.77;9.50;;;2.10;99.90;;;;;;8284630;28;20018;-75
2020/12/20 09:07:49;;;;;;;14.35;9.95;;;2.20;99.90;;;;;;8297347;28;20502;-75
2020/12/20 09:11:50;;;;;;;13.27;9.25;;;1.80;99.90;;;;;;8282416;28;20049;-73
2020/12/20 09:15:54;;;;;;;13.88;9.70;;;1.90;99.90;;;;;;8291424;28;20025;-75
2020/12/20 09:19:56;;;;;;;12.40;9.40;;;2.30;99.90;;;;;;8278721;28;20014;-76
2020/12/20 09:23:58;;;;;;;14.20;10.02;;;2.40;99.90;;;;;;8276223;28;20037;-78
2020/12/20 09:28:05;;;;;;;13.35;9.55;;;2.50;99.90;;;;;;8285394;28;20033;-75
2020/12/20 09:32:09;;;;;;;13.15;8.93;;;2.50;99.90;;;;;;8295535;28;20029;-72
2020/12/20 09:36:21;;;;;;;16.80;10.15;;;2.60;99.90;;;;;;8291061;28;20063;-75
2020/12/20 09:40:22;;;;;;;21.08;10.18;;;2.60;99.90;;;;;;8292909;28;20028;-72
2020/12/20 09:44:23;;;;;;;26.52;9.55;;;2.80;99.90;;;;;;8295326;28;20018;-73
2020/12/20 09:48:23;;;;;;;73.53;9.98;;;3.10;99.90;;;;;;8287863;28;20652;-79
2020/12/20 09:52:24;;;;;;;16.60;8.85;;;3.30;99.90;;;;;;8289972;28;20057;-74
2020/12/20 09:56:24;;;;;;;21.27;10.10;;;3.50;99.90;;;;;;8292740;28;20030;-77
2020/12/20 10:00:25;;;;;;;49.97;10.90;;;3.50;99.90;;;;;;8293404;28;20828;-76
2020/12/20 10:04:34;;;;;;;35.80;10.05;;;3.70;99.90;;;;;;8295159;28;20057;-82
2020/12/20 10:08:35;;;;;;;34.67;10.10;;;3.90;99.90;;;;;;8286579;28;20029;-79
2020/12/20 10:12:36;;;;;;;18.95;8.80;;;3.80;99.90;;;;;;8296387;28;20041;-76
2020/12/20 10:16:36;;;;;;;37.58;8.73;;;3.70;99.90;;;;;;8293571;28;20502;-75
2020/12/20 10:20:37;;;;;;;18.20;8.35;;;3.80;99.90;;;;;;8293333;28;20021;-71
2020/12/20 10:24:37;;;;;;;67.30;9.25;;;4.10;99.90;;;;;;8293071;28;20510;-72
2020/12/20 10:28:38;;;;;;;52.25;9.15;;;4.40;99.90;;;;;;8293974;28;20041;-72
2020/12/20 10:32:39;;;;;;;47.97;9.13;;;4.80;99.90;;;;;;8292958;28;20025;-72
2020/12/20 10:36:40;;;;;;;15.38;9.30;;;5.00;99.90;;;;;;8294107;28;20065;-72
2020/12/20 10:40:40;;;;;;;13.65;9.18;;;5.20;99.90;;;;;;8263788;28;20034;-71
2020/12/20 10:44:41;;;;;;;15.18;10.38;;;5.50;99.90;;;;;;8290596;28;20107;-72
2020/12/20 10:48:42;;;;;;;16.80;11.38;;;5.60;99.90;;;;;;8281708;28;20037;-71
2020/12/20 10:52:43;;;;;;;16.38;11.13;;;5.90;99.90;;;;;;8295302;28;20121;-71
2020/12/20 10:56:46;;;;;;;14.48;11.13;;;5.80;99.90;;;;;;8314939;28;20029;-71
2020/12/20 11:00:47;;;;;;;15.98;9.40;;;5.60;99.90;;;;;;8297665;28;21935;-72
2020/12/20 11:04:48;;;;;;;16.10;9.25;;;5.10;99.90;;;;;;8285330;28;20088;-71
2020/12/20 11:08:49;;;;;;;12.02;9.02;;;4.70;99.90;;;;;;8283842;28;20026;-72
2020/12/20 11:12:49;;;;;;;12.52;9.35;;;4.70;99.90;;;;;;8281862;28;20042;-72
2020/12/20 11:16:54;;;;;;;10.98;8.68;;;5.40;99.90;;;;;;8295728;28;20026;-72
2020/12/20 11:20:55;;;;;;;14.40;10.02;;;5.80;99.90;;;;;;8297547;28;20666;-72
2020/12/20 11:24:55;;;;;;;14.13;9.55;;;6.60;99.90;;;;;;8283090;28;20034;-72
2020/12/20 11:28:56;;;;;;;12.48;9.70;;;7.20;99.90;;;;;;8285145;28;20045;-72
2020/12/20 11:32:57;;;;;;;12.18;9.40;;;7.80;99.90;;;;;;8288399;28;20033;-72
2020/12/20 11:36:57;;;;;;;11.02;9.10;;;8.10;99.90;;;;;;8279981;28;20041;-71
2020/12/20 11:41:00;;;;;;;10.93;9.13;;;8.70;99.90;;;;;;8276386;28;20739;-72
2020/12/20 11:45:00;;;;;;;12.85;9.50;;;8.90;99.90;;;;;;8295453;28;20147;-72
2020/12/20 11:49:02;;;;;;;10.15;8.65;;;8.60;99.90;;;;;;8279161;28;20090;-72
2020/12/20 11:53:03;;;;;;;9.43;8.40;;;;;;;;;;8278138;28;20026;-72
2020/12/20 11:57:04;;;;;;;9.23;8.02;;;10.90;99.90;;;;;;8287348;28;20033;-72
2020/12/20 12:01:06;;;;;;;10.18;8.35;;;11.30;99.90;;;;;;8271460;28;20068;-72
2020/12/20 12:05:07;;;;;;;9.75;8.57;;;11.30;99.90;;;;;;8288624;28;20018;-72
2020/12/20 12:09:07;;;;;;;10.98;8.70;;;10.40;99.90;;;;;;8279338;28;20034;-72
2020/12/20 12:13:09;;;;;;;9.65;8.52;;;8.80;99.90;;;;;;8275336;28;20545;-78
2020/12/20 12:17:11;;;;;;;12.25;9.35;;;7.90;99.90;;;;;;8279816;28;20041;-75
2020/12/20 12:21:16;;;;;;;10.52;8.52;;;7.70;99.90;;;;;;8286446;28;20080;-78
2020/12/20 12:25:17;;;;;;;10.45;8.75;;;7.50;99.90;;;;;;8290871;28;20026;-77
2020/12/20 12:29:18;;;;;;;11.52;9.20;;;7.30;99.90;;;;;;8286856;28;20438;-74
2020/12/20 12:33:19;;;;;;;11.82;9.50;;;7.20;99.90;;;;;;8286178;28;20148;-77
2020/12/20 12:37:19;;;;;;;13.00;9.52;;;6.90;99.90;;;;;;8281542;28;20030;-73
2020/12/20 12:41:28;;;;;;;11.73;9.10;;;6.50;99.90;;;;;;8277753;28;20030;-76
2020/12/20 12:45:28;;;;;;;12.75;9.90;;;6.00;99.90;;;;;;8289278;28;20030;-77
2020/12/20 12:49:29;;;;;;;11.88;9.43;;;6.00;99.90;;;;;;8282544;28;20057;-74
2020/12/20 12:53:30;;;;;;;13.98;10.80;;;6.10;99.90;;;;;;8312502;28;20022;-75
2020/12/20 12:57:31;;;;;;;13.77;9.68;;;6.20;99.90;;;;;;8293560;28;20040;-78
2020/12/20 13:01:31;;;;;;;14.98;10.55;;;5.60;99.90;;;;;;8294186;28;20037;-73
2020/12/20 13:05:32;;;;;;;16.65;11.27;;;5.70;99.90;;;;;;8295168;28;20582;-77
2020/12/20 13:09:34;;;;;;;16.17;11.00;;;5.90;99.90;;;;;;8291074;28;20377;-77
2020/12/20 13:13:34;;;;;;;17.33;11.98;;;5.80;99.90;;;;;;8310384;28;20631;-77
2020/12/20 13:17:37;;;;;;;16.80;11.70;;;5.80;99.90;;;;;;8293785;28;20041;-81
2020/12/20 13:21:37;;;;;;;17.38;11.48;;;5.80;99.90;;;;;;8292588;28;20028;-75
2020/12/20 13:25:38;;;;;;;15.80;11.60;;;5.80;99.90;;;;;;8284614;28;20022;-72
2020/12/20 13:29:38;;;;;;;14.75;10.82;;;6.00;99.90;;;;;;8286155;28;20033;-76
2020/12/20 13:33:39;;;;;;;16.55;11.77;;;6.30;99.90;;;;;;8307272;28;20026;-78
2020/12/20 13:37:45;;;;;;;18.00;12.18;;;6.40;99.90;;;;;;8290540;28;20033;-77
2020/12/20 13:41:50;;;;;;;17.38;12.95;;;6.20;99.90;;;;;;8297732;28;20384;-77
2020/12/20 13:45:51;;;;;;;18.25;12.98;;;6.30;99.90;;;;;;8292011;28;20026;-76
2020/12/20 13:49:52;;;;;;;17.75;11.55;;;5.80;99.90;;;;;;8292693;28;20081;-74
2020/12/20 13:53:52;;;;;;;18.63;12.32;;;6.10;99.90;;;;;;8294289;28;20022;-75
2020/12/20 13:57:53;;;;;;;17.58;12.07;;;6.50;99.90;;;;;;8293524;28;20026;-76
2020/12/20 14:01:54;;;;;;;21.98;12.93;;;6.70;99.90;;;;;;8309826;28;20052;-76
2020/12/20 14:05:54;;;;;;;20.52;13.40;;;6.30;99.90;;;;;;8287810;28;20026;-74
2020/12/20 14:09:55;;;;;;;18.55;13.32;;;5.80;99.90;;;;;;8274064;28;20034;-75
2020/12/20 14:13:55;;;;;;;21.08;13.20;;;5.90;99.90;;;;;;8282821;28;20047;-76
2020/12/20 14:17:56;;;;;;;19.67;12.82;;;5.30;99.90;;;;;;8291835;28;20037;-76
2020/12/20 14:21:56;;;;;;;16.08;11.85;;;4.90;99.90;;;;;;8303842;28;20467;-75
2020/12/20 14:25:57;;;;;;;21.23;12.95;;;4.80;99.90;;;;;;8287764;28;20038;-75
2020/12/20 14:29:59;;;;;;;22.38;14.95;;;4.70;99.90;;;;;;8288017;28;20385;-75
2020/12/20 14:34:00;;;;;;;20.95;14.20;;;4.30;99.90;;;;;;8278624;28;20413;-76
2020/12/20 14:38:00;;;;;;;24.70;15.27;;;4.30;99.90;;;;;;8268647;28;20112;-76
2020/12/20 14:42:01;;;;;;;24.25;16.42;;;4.40;99.90;;;;;;8258552;28;20113;-75
2020/12/20 14:46:10;;;;;;;31.20;16.75;;;4.40;99.90;;;;;;8257603;28;20092;-74
2020/12/20 14:50:10;;;;;;;46.28;15.48;;;4.30;99.90;;;;;;8279335;28;20125;-74
2020/12/20 14:54:11;;;;;;;71.43;15.32;;;4.20;99.90;;;;;;8279596;28;20446;-75
2020/12/20 14:58:12;;;;;;;76.07;15.48;;;4.00;99.90;;;;;;8280530;28;20597;-74
2020/12/20 15:02:13;;;;;;;48.28;14.98;;;3.90;99.90;;;;;;8273896;28;20758;-78
2020/12/20 15:06:18;;;;;;;23.10;14.80;;;4.00;99.90;;;;;;8287795;28;20042;-77
2020/12/20 15:10:19;;;;;;;41.47;14.63;;;3.80;99.90;;;;;;8282790;28;20118;-77
2020/12/20 15:14:20;;;;;;;47.90;16.35;;;3.70;99.90;;;;;;8279966;28;20038;-75
2020/12/20 15:18:22;;;;;;;33.88;16.25;;;3.50;99.90;;;;;;8293783;28;20026;-77
2020/12/20 15:22:23;;;;;;;83.65;15.95;;;3.40;99.90;;;;;;8281391;28;20030;-77
2020/12/20 15:26:25;;;;;;;36.97;14.80;;;3.30;99.90;;;;;;8265329;28;20065;-75
2020/12/20 15:30:25;;;;;;;160.52;15.98;;;3.30;99.90;;;;;;8261758;28;20108;-73
2020/12/20 15:34:26;;;;;;;54.03;11.95;;;3.40;99.90;;;;;;8286759;28;20145;-74
2020/12/20 15:38:27;;;;;;;53.22;12.45;;;3.30;99.90;;;;;;8265165;28;20034;-75
2020/12/20 15:42:27;;;;;;;40.95;13.50;;;3.10;99.90;;;;;;8288431;28;20022;-74
2020/12/20 15:46:28;;;;;;;37.92;14.95;;;3.00;99.90;;;;;;8284526;28;20060;-75
2020/12/20 15:50:29;;;;;;;52.90;16.63;;;3.00;99.90;;;;;;8278493;28;20057;-75
2020/12/20 15:54:31;;;;;;;53.60;14.88;;;2.90;99.90;;;;;;8288333;28;20181;-79
2020/12/20 15:58:33;;;;;;;58.60;15.38;;;3.00;99.90;;;;;;8289957;28;20025;-78
2020/12/20 16:02:37;;;;;;;152.52;15.85;;;3.10;99.90;;;;;;8302541;28;20022;-77
2020/12/20 16:06:40;;;;;;;69.10;15.25;;;2.90;99.90;;;;;;8284227;28;20096;-77
2020/12/20 16:10:43;;;;;;;287.83;18.83;;;2.80;99.90;;;;;;8286714;28;20038;-78
2020/12/20 16:14:46;;;;;;;122.97;16.08;;;2.80;99.90;;;;;;8287002;28;20022;-77
2020/12/20 16:18:52;;;;;;;264.55;24.42;;;2.90;99.90;;;;;;8302884;28;20122;-77
2020/12/20 16:22:54;;;;;;;127.13;14.70;;;3.00;99.90;;;;;;8282468;28;20091;-73
2020/12/20 16:26:55;;;;;;;240.18;18.08;;;2.90;99.90;;;;;;8265557;28;20033;-68
2020/12/20 16:30:56;;;;;;;122.35;14.18;;;2.60;99.90;;;;;;8275776;28;20038;-68
2020/12/20 16:34:56;;;;;;;170.00;16.83;;;2.50;99.90;;;;;;8298009;28;20037;-69
2020/12/20 16:38:57;;;;;;;120.53;16.15;;;2.60;99.90;;;;;;8293786;28;20030;-68
2020/12/20 16:42:57;;;;;;;88.53;13.48;;;2.40;99.90;;;;;;8293065;28;20041;-68
2020/12/20 16:46:58;;;;;;;42.28;13.18;;;2.40;99.90;;;;;;8292308;28;20514;-68
2020/12/20 16:50:59;;;;;;;78.57;13.40;;;2.30;99.90;;;;;;8300340;28;20033;-73
2020/12/20 16:55:00;;;;;;;57.60;13.20;;;2.30;99.90;;;;;;8271544;28;20041;-74
2020/12/20 16:59:02;;;;;;;74.45;13.25;;;2.40;99.90;;;;;;8283559;28;20041;-73
2020/12/20 17:03:02;;;;;;;58.63;13.63;;;2.40;99.90;;;;;;8290582;28;20399;-73
2020/12/20 17:07:03;;;;;;;71.22;14.77;;;2.40;99.90;;;;;;8280219;28;20041;-73
2020/12/20 17:11:04;;;;;;;51.90;13.73;;;2.20;99.90;;;;;;8268738;28;20034;-73
2020/12/20 17:15:04;;;;;;;51.38;15.00;;;2.10;99.90;;;;;;8262707;28;20065;-75
2020/12/20 17:19:05;;;;;;;49.22;14.85;;;2.10;99.90;;;;;;8265242;28;20030;-72
2020/12/20 17:23:06;;;;;;;35.15;13.40;;;2.30;99.90;;;;;;8287492;28;20025;-72
2020/12/20 17:27:06;;;;;;;39.42;15.13;;;2.10;99.90;;;;;;8272630;28;20053;-74
2020/12/20 17:31:12;;;;;;;69.55;28.08;;;1.90;99.90;;;;;;8283076;28;20033;-73
2020/12/20 17:35:13;;;;;;;43.03;17.63;;;1.90;99.90;;;;;;8287361;28;20505;-73
2020/12/20 17:39:14;;;;;;;25.55;15.68;;;1.70;99.90;;;;;;8282473;28;20034;-72
2020/12/20 17:43:16;;;;;;;37.67;21.33;;;1.80;99.90;;;;;;8263158;28;20500;-71
2020/12/20 17:47:17;;;;;;;30.73;19.33;;;2.00;99.90;;;;;;8272366;28;20031;-71
2020/12/20 17:51:18;;;;;;;39.10;20.33;;;1.90;99.90;;;;;;8289184;28;20435;-71
2020/12/20 17:55:18;;;;;;;41.45;16.55;;;2.30;99.90;;;;;;8258350;28;20034;-71
2020/12/20 17:59:20;;;;;;;44.63;20.77;;;2.40;99.90;;;;;;8272650;28;20044;-72
2020/12/20 18:03:21;;;;;;;50.42;25.48;;;2.30;99.90;;;;;;8274615;28;20031;-76
2020/12/20 18:07:21;;;;;;;105.15;46.50;;;2.30;99.90;;;;;;8272967;28;20107;-75
2020/12/20 18:11:32;;;;;;;43.47;20.15;;;2.30;99.90;;;;;;8270738;28;20030;-75
2020/12/20 18:15:33;;;;;;;37.92;21.00;;;2.10;99.90;;;;;;8280469;28;20113;-73
2020/12/20 18:19:33;;;;;;;45.33;22.25;;;2.00;99.90;;;;;;8287410;28;20032;-79
2020/12/20 18:23:37;;;;;;;45.08;23.67;;;2.00;99.90;;;;;;8298576;28;20026;-70
2020/12/20 18:27:39;;;;;;;38.70;22.25;;;2.10;99.90;;;;;;8283575;28;20141;-73
2020/12/20 18:31:39;;;;;;;29.05;18.17;;;1.90;99.90;;;;;;8284296;28;20034;-74
2020/12/20 18:35:40;;;;;;;31.42;18.35;;;1.90;99.90;;;;;;8301668;28;20068;-75
2020/12/20 18:39:45;;;;;;;32.67;19.63;;;1.80;99.90;;;;;;8289557;28;20033;-74
2020/12/20 18:43:45;;;;;;;27.45;17.77;;;1.70;99.90;;;;;;8277420;28;20109;-75
2020/12/20 18:48:11;;;;;;;20.42;14.45;;;1.90;99.90;;;;;;8264539;28;20030;-78
2020/12/20 18:52:12;;;;;;;23.50;14.40;;;1.90;99.90;;;;;;8285890;28;20021;-74
2020/12/20 18:56:13;;;;;;;25.00;14.82;;;2.10;99.90;;;;;;8284250;28;20034;-76
2020/12/20 19:00:14;;;;;;;20.52;14.90;;;2.20;99.90;;;;;;8282608;28;20026;-76
2020/12/20 19:04:14;;;;;;;23.52;15.38;;;2.10;99.90;;;;;;8275904;28;20023;-71
2020/12/20 19:08:15;;;;;;;28.23;18.48;;;2.20;99.90;;;;;;8274647;28;20042;-71
2020/12/20 19:12:15;;;;;;;28.63;18.58;;;2.10;99.90;;;;;;8279612;28;20389;-72
2020/12/20 19:16:29;;;;;;;22.63;15.50;;;2.10;99.90;;;;;;8270190;28;20040;-73
2020/12/20 19:20:29;;;;;;;23.30;15.60;;;2.10;99.90;;;;;;8270750;28;20026;-73
2020/12/20 19:24:30;;;;;;;23.52;16.80;;;2.20;99.90;;;;;;8279036;28;20698;-72
2020/12/20 19:28:31;;;;;;;24.45;16.40;;;2.20;99.90;;;;;;8280430;28;20706;-73
2020/12/20 19:32:31;;;;;;;24.83;16.48;;;2.40;99.90;;;;;;8266516;28;20063;-72
2020/12/20 19:36:32;;;;;;;31.80;20.33;;;2.40;99.90;;;;;;8276348;28;20030;-72
2020/12/20 19:40:33;;;;;;;41.65;26.58;;;2.50;99.90;;;;;;8281391;28;20033;-73
2020/12/20 19:44:34;;;;;;;35.70;23.48;;;2.40;99.90;;;;;;8268397;28;20030;-73
2020/12/20 19:48:35;;;;;;;33.30;22.90;;;2.30;99.90;;;;;;8263511;28;20026;-73
2020/12/20 19:52:36;;;;;;;29.55;19.80;;;2.20;99.90;;;;;;8288868;28;20403;-73
2020/12/20 19:56:38;;;;;;;27.27;18.48;;;2.20;99.90;;;;;;8284687;28;20037;-69
2020/12/20 20:00:38;;;;;;;33.28;20.40;;;2.30;99.90;;;;;;8269789;28;20594;-70
2020/12/20 20:04:39;;;;;;;34.47;23.45;;;2.30;99.90;;;;;;8287834;28;20112;-70
2020/12/20 20:08:39;;;;;;;45.42;26.60;;;2.40;99.90;;;;;;8295073;28;20030;-70
2020/12/20 20:12:40;;;;;;;40.88;25.65;;;2.40;99.90;;;;;;8310444;28;20025;-70
2020/12/20 20:16:41;;;;;;;52.25;28.77;;;2.40;99.90;;;;;;8292761;28;20080;-69
2020/12/20 20:20:41;;;;;;;52.60;31.17;;;2.40;99.90;;;;;;8309320;28;20404;-70
2020/12/20 20:24:42;;;;;;;51.15;29.00;;;2.40;99.90;;;;;;8309977;28;20029;-70
2020/12/20 20:28:43;;;;;;;39.45;24.63;;;2.40;99.90;;;;;;8293908;28;20029;-70
2020/12/20 20:32:44;;;;;;;35.80;22.58;;;2.50;99.90;;;;;;8285152;28;20041;-69
2020/12/20 20:36:48;;;;;;;54.60;29.95;;;2.50;99.90;;;;;;8280956;28;20383;-69
2020/12/20 20:40:48;;;;;;;50.45;29.30;;;2.80;99.90;;;;;;8274181;28;20391;-70
2020/12/20 20:44:49;;;;;;;49.08;27.90;;;2.80;99.90;;;;;;8263723;28;20026;-70